Time;durP1;ratioP1;P1;durP2;ratioP2;P2;SDS_P1;SDS_P2;PMS_P1;PMS_P2;Temp;Humidity;BMP_temperature;BMP_pressure;BME280_temperature;BME280_humidity;BME280_pressure;Samples;Min_cycle;Max_cycle;Signal;HPM_P1;HPM_P2
2021/05/28 00:02:10;;;;;;;4.15;2.60;;;;;;;;;;4410572;32;20229;-53
2021/05/28 00:04:36;;;;;;;6.45;2.75;;;;;;;;;;4409988;32;20308;-54
2021/05/28 00:07:01;;;;;;;8.93;3.15;;;;;;;;;;4412689;32;20244;-54
2021/05/28 00:09:27;;;;;;;3.83;2.40;;;;;;;;;;4418011;32;20253;-54
2021/05/28 00:11:52;;;;;;;4.28;2.72;;;;;;;;;;4421096;32;20342;-54
2021/05/28 00:14:18;;;;;;;8.73;2.95;;;;;;;;;;4420280;32;20268;-54
2021/05/28 00:16:44;;;;;;;9.98;3.30;;;;;;;;;;4420828;32;20229;-53
2021/05/28 00:19:09;;;;;;;8.45;2.97;;;;;;;;;;4413795;32;20217;-53
2021/05/28 00:21:35;;;;;;;13.25;9.43;;;;;;;;;;4378715;32;20233;-54
2021/05/28 00:24:01;;;;;;;27.52;24.58;;;;;;;;;;4405304;32;20225;-54
2021/05/28 00:26:26;;;;;;;37.78;33.67;;;;;;;;;;4405242;32;20221;-54
2021/05/28 00:28:52;;;;;;;22.92;20.62;;;;;;;;;;4404862;32;20315;-54
2021/05/28 00:31:19;;;;;;;15.98;13.02;;;;;;;;;;4411367;32;20255;-54
2021/05/28 00:33:45;;;;;;;7.78;5.55;;;;;;;;;;4420333;32;20237;-54
2021/05/28 00:36:10;;;;;;;7.50;3.28;;;;;;;;;;4420163;32;20556;-54
2021/05/28 00:38:36;;;;;;;8.15;2.90;;;;;;;;;;4420490;32;20193;-54
2021/05/28 00:41:01;;;;;;;19.65;2.60;;;;;;;;;;4420193;32;20264;-54
2021/05/28 00:43:27;;;;;;;7.80;2.50;;;;;;;;;;4420178;32;20588;-54
2021/05/28 00:45:52;;;;;;;5.07;2.40;;;;;;;;;;4420057;32;20450;-54
2021/05/28 00:48:19;;;;;;;8.75;2.58;;;;;;;;;;4419812;32;20217;-54
2021/05/28 00:50:45;;;;;;;11.23;2.90;;;;;;;;;;4420017;32;20223;-54
2021/05/28 00:53:11;;;;;;;4.55;2.62;;;;;;;;;;4419618;32;20225;-54
2021/05/28 00:55:36;;;;;;;9.10;2.10;;;;;;;;;;4419696;32;20281;-54
2021/05/28 00:58:02;;;;;;;2.72;2.00;;;;;;;;;;4420197;32;20280;-54
2021/05/28 01:00:28;;;;;;;4.75;2.80;;;;;;;;;;4420045;32;20672;-56
2021/05/28 01:02:54;;;;;;;5.15;2.95;;;;;;;;;;4420092;32;20251;-54
2021/05/28 01:05:21;;;;;;;4.35;2.47;;;;;;;;;;4419044;32;20237;-54
2021/05/28 01:07:46;;;;;;;6.28;2.97;;;;;;;;;;4419707;32;20214;-54
2021/05/28 01:10:13;;;;;;;7.22;3.10;;;;;;;;;;4419482;32;20358;-55
2021/05/28 01:12:39;;;;;;;13.05;3.17;;;;;;;;;;4420007;32;20217;-54
2021/05/28 01:15:06;;;;;;;6.95;2.72;;;;;;;;;;4419084;32;20330;-55
2021/05/28 01:17:32;;;;;;;8.60;2.65;;;;;;;;;;4418897;32;20221;-54
2021/05/28 01:19:57;;;;;;;11.02;2.75;;;;;;;;;;4407784;32;20214;-54
2021/05/28 01:22:23;;;;;;;9.55;2.58;;;;;;;;;;4404685;32;20304;-54
2021/05/28 01:24:49;;;;;;;8.38;2.40;;;;;;;;;;4403905;32;20642;-54
2021/05/28 01:27:17;;;;;;;4.90;2.55;;;;;;;;;;4404331;32;20248;-54
2021/05/28 01:29:43;;;;;;;7.25;2.53;;;;;;;;;;4403924;32;20206;-54
2021/05/28 01:32:08;;;;;;;4.80;3.05;;;;;;;;;;4404156;32;20320;-55
2021/05/28 01:34:33;;;;;;;3.97;2.92;;;;;;;;;;4403970;32;20228;-54
2021/05/28 01:36:59;;;;;;;6.45;2.95;;;;;;;;;;4404422;32;20569;-54
2021/05/28 01:39:24;;;;;;;9.57;3.00;;;;;;;;;;4404107;32;20201;-54
2021/05/28 01:41:50;;;;;;;8.88;3.00;;;;;;;;;;4404098;32;20312;-54
2021/05/28 01:44:17;;;;;;;7.87;3.00;;;;;;;;;;4403893;32;20254;-53
2021/05/28 01:46:43;;;;;;;12.68;3.58;;;;;;;;;;4404017;32;20385;-54
2021/05/28 01:49:08;;;;;;;6.32;3.17;;;;;;;;;;4404222;32;20205;-54
2021/05/28 01:51:34;;;;;;;7.45;3.47;;;;;;;;;;4404004;32;20279;-54
2021/05/28 01:53:59;;;;;;;4.22;3.08;;;;;;;;;;4389771;32;20584;-54
2021/05/28 01:56:26;;;;;;;10.38;3.10;;;;;;;;;;4403629;32;20217;-54
2021/05/28 01:58:53;;;;;;;7.00;3.22;;;;;;;;;;4403711;32;20666;-54
2021/05/28 02:01:18;;;;;;;7.97;3.53;;;;;;;;;;4403939;32;20229;-54
2021/05/28 02:03:44;;;;;;;8.05;3.35;;;;;;;;;;4403895;32;20283;-54
2021/05/28 02:06:09;;;;;;;7.12;3.20;;;;;;;;;;4403352;32;20237;-54
2021/05/28 02:08:35;;;;;;;6.07;3.28;;;;;;;;;;4403866;32;20205;-54
2021/05/28 02:11:00;;;;;;;6.90;2.80;;;;;;;;;;4403587;32;20554;-54
2021/05/28 02:13:26;;;;;;;8.02;2.92;;;;;;;;;;4403843;32;20261;-54
2021/05/28 02:15:51;;;;;;;4.95;3.55;;;;;;;;;;4403424;32;20310;-54
2021/05/28 02:18:17;;;;;;;7.15;5.37;;;;;;;;;;4404533;32;20570;-54
2021/05/28 02:20:42;;;;;;;13.35;6.55;;;;;;;;;;4419096;32;20366;-54
2021/05/28 02:23:08;;;;;;;14.40;5.68;;;;;;;;;;4418852;32;20313;-54
2021/05/28 02:25:34;;;;;;;20.20;6.25;;;;;;;;;;4418233;32;20284;-56
2021/05/28 02:27:59;;;;;;;9.10;4.53;;;;;;;;;;4418797;32;20225;-54
2021/05/28 02:30:24;;;;;;;9.85;3.72;;;;;;;;;;4418645;32;20280;-54
2021/05/28 02:32:50;;;;;;;8.05;2.97;;;;;;;;;;4418808;32;20302;-55
2021/05/28 02:35:16;;;;;;;9.73;4.18;;;;;;;;;;4418158;32;20372;-55
2021/05/28 02:37:42;;;;;;;8.27;2.90;;;;;;;;;;4418830;32;20268;-54
2021/05/28 02:40:08;;;;;;;4.30;2.75;;;;;;;;;;4418273;32;20305;-56
2021/05/28 02:42:34;;;;;;;14.30;3.15;;;;;;;;;;4418772;32;20677;-54
2021/05/28 02:45:01;;;;;;;10.60;2.95;;;;;;;;;;4417928;32;20239;-54
2021/05/28 02:47:26;;;;;;;10.00;3.37;;;;;;;;;;4418305;32;20251;-54
2021/05/28 02:49:52;;;;;;;9.68;3.10;;;;;;;;;;4418095;32;20209;-54
2021/05/28 02:52:18;;;;;;;6.72;3.62;;;;;;;;;;4418362;32;20229;-54
2021/05/28 02:54:44;;;;;;;5.40;2.90;;;;;;;;;;4417698;32;20735;-54
2021/05/28 02:57:10;;;;;;;8.35;3.42;;;;;;;;;;4418278;32;20319;-54
2021/05/28 02:59:35;;;;;;;6.05;3.72;;;;;;;;;;4417895;32;20201;-54
2021/05/28 03:02:02;;;;;;;8.23;3.42;;;;;;;;;;4418136;32;20501;-54
2021/05/28 03:04:27;;;;;;;3.72;2.95;;;;;;;;;;4417659;32;20241;-54
2021/05/28 03:06:53;;;;;;;8.38;3.50;;;;;;;;;;4418079;32;20304;-54
2021/05/28 03:09:18;;;;;;;5.47;3.28;;;;;;;;;;4417931;32;20209;-54
2021/05/28 03:11:43;;;;;;;6.57;3.20;;;;;;;;;;4417835;32;20629;-54
2021/05/28 03:14:09;;;;;;;4.95;3.45;;;;;;;;;;4417568;32;20629;-54
2021/05/28 03:16:34;;;;;;;4.93;3.55;;;;;;;;;;4417859;32;20251;-55
2021/05/28 03:19:03;;;;;;;7.25;3.65;;;;;;;;;;4412161;32;20266;-54
2021/05/28 03:23:58;;;;;;;8.73;4.57;;;;;;;;;;4402647;32;20312;-54
2021/05/28 03:26:25;;;;;;;7.32;3.53;;;;;;;;;;4402770;32;20244;-54
2021/05/28 03:28:52;;;;;;;5.37;3.33;;;;;;;;;;4402915;32;20663;-54
2021/05/28 03:31:18;;;;;;;5.40;3.55;;;;;;;;;;4408897;32;20240;-54
2021/05/28 03:33:43;;;;;;;5.00;3.58;;;;;;;;;;4417744;32;20288;-55
2021/05/28 03:36:09;;;;;;;5.32;3.60;;;;;;;;;;4417459;32;20276;-55
2021/05/28 03:38:35;;;;;;;6.90;4.93;;;;;;;;;;4417528;32;20354;-54
2021/05/28 03:41:01;;;;;;;9.43;3.80;;;;;;;;;;4420992;32;20287;-54
2021/05/28 03:43:26;;;;;;;6.97;3.58;;;;;;;;;;4420745;32;20201;-54
2021/05/28 03:45:52;;;;;;;10.55;3.70;;;;;;;;;;4420476;32;20378;-54
2021/05/28 03:48:18;;;;;;;9.95;3.75;;;;;;;;;;4420604;32;20719;-54
2021/05/28 03:50:43;;;;;;;8.10;4.70;;;;;;;;;;4420913;32;20345;-55
2021/05/28 03:53:09;;;;;;;14.77;5.35;;;;;;;;;;4420543;32;20387;-54
2021/05/28 03:55:34;;;;;;;4.55;4.12;;;;;;;;;;4420435;32;20481;-55
2021/05/28 03:58:00;;;;;;;10.43;5.57;;;;;;;;;;4420896;32;20247;-55
2021/05/28 04:00:26;;;;;;;8.88;5.75;;;;;;;;;;4420530;32;20683;-55
2021/05/28 04:02:52;;;;;;;13.25;4.65;;;;;;;;;;4420763;32;20224;-55
2021/05/28 04:05:18;;;;;;;9.73;4.40;;;;;;;;;;4420053;32;20224;-55
2021/05/28 04:07:43;;;;;;;20.10;6.18;;;;;;;;;;4420362;32;20293;-55
2021/05/28 04:10:09;;;;;;;7.60;5.22;;;;;;;;;;4420371;32;20257;-55
2021/05/28 04:12:35;;;;;;;10.85;5.35;;;;;;;;;;4420596;32;20247;-55
2021/05/28 04:15:00;;;;;;;8.15;5.10;;;;;;;;;;4420326;32;20208;-55
2021/05/28 04:17:26;;;;;;;11.07;4.90;;;;;;;;;;4419953;32;20213;-55
2021/05/28 04:19:51;;;;;;;19.42;5.85;;;;;;;;;;4409560;32;20661;-55
2021/05/28 04:22:17;;;;;;;10.27;5.18;;;;;;;;;;4404612;32;20229;-55
2021/05/28 04:24:42;;;;;;;8.88;4.47;;;;;;;;;;4404596;32;20400;-55
2021/05/28 04:27:08;;;;;;;12.27;5.20;;;;;;;;;;4405265;32;20285;-55
2021/05/28 04:29:33;;;;;;;14.30;4.93;;;;;;;;;;4404584;32;20234;-55
2021/05/28 04:31:59;;;;;;;5.82;4.32;;;;;;;;;;4404965;32;20244;-55
2021/05/28 04:34:24;;;;;;;6.57;4.72;;;;;;;;;;4404791;32;20681;-55
2021/05/28 04:36:50;;;;;;;8.10;5.18;;;;;;;;;;4404785;32;20213;-55
2021/05/28 04:39:15;;;;;;;8.00;4.95;;;;;;;;;;4390937;32;20248;-55
2021/05/28 04:41:41;;;;;;;8.30;4.50;;;;;;;;;;4404889;32;20259;-55
2021/05/28 04:44:06;;;;;;;6.43;4.32;;;;;;;;;;4404397;32;20583;-54
2021/05/28 04:46:32;;;;;;;12.32;4.00;;;;;;;;;;4404423;32;20238;-55
2021/05/28 04:48:58;;;;;;;5.90;4.35;;;;;;;;;;4404773;32;20214;-55
2021/05/28 04:51:23;;;;;;;9.50;4.57;;;;;;;;;;4403115;32;20245;-55
2021/05/28 04:53:49;;;;;;;9.20;4.43;;;;;;;;;;4404112;32;20224;-55
2021/05/28 04:56:15;;;;;;;15.65;4.40;;;;;;;;;;4403719;32;20782;-55
2021/05/28 04:58:41;;;;;;;16.33;4.35;;;;;;;;;;4406150;32;20336;-54
2021/05/28 05:01:07;;;;;;;11.18;5.40;;;;;;;;;;4410423;32;20323;-55
2021/05/28 05:03:32;;;;;;;15.43;6.07;;;;;;;;;;4414840;32;20252;-55
2021/05/28 05:05:57;;;;;;;9.57;5.75;;;;;;;;;;4418090;32;20651;-54
2021/05/28 05:08:23;;;;;;;10.32;6.07;;;;;;;;;;4414656;32;20340;-55
2021/05/28 05:10:49;;;;;;;15.75;5.03;;;;;;;;;;4418752;32;20327;-55
2021/05/28 05:13:15;;;;;;;8.18;4.47;;;;;;;;;;4418612;32;20192;-55
2021/05/28 05:15:41;;;;;;;16.92;4.65;;;;;;;;;;4414244;32;20748;-55
2021/05/28 05:18:07;;;;;;;10.00;4.72;;;;;;;;;;4418579;32;20577;-54
2021/05/28 05:20:36;;;;;;;5.35;3.75;;;;;;;;;;4404049;32;20703;-55
2021/05/28 05:23:02;;;;;;;9.25;4.12;;;;;;;;;;4403885;32;20607;-54
2021/05/28 05:25:28;;;;;;;10.35;4.03;;;;;;;;;;4402976;32;20315;-54
2021/05/28 05:27:53;;;;;;;13.52;4.43;;;;;;;;;;4403449;32;20245;-54
2021/05/28 05:30:19;;;;;;;8.45;5.45;;;;;;;;;;4389516;32;20312;-61
2021/05/28 05:32:45;;;;;;;15.75;5.50;;;;;;;;;;4414147;32;20335;-53
2021/05/28 05:35:11;;;;;;;13.62;6.30;;;;;;;;;;4418027;32;20284;-55
2021/05/28 05:37:36;;;;;;;16.92;6.45;;;;;;;;;;4418612;32;20243;-53
2021/05/28 05:40:03;;;;;;;17.85;7.10;;;;;;;;;;4418396;32;20201;-53
2021/05/28 05:42:29;;;;;;;18.95;7.12;;;;;;;;;;4418314;32;20346;-53
2021/05/28 05:44:54;;;;;;;13.38;6.43;;;;;;;;;;4417742;32;20610;-54
2021/05/28 05:47:19;;;;;;;11.95;6.05;;;;;;;;;;4418142;32;20692;-54
2021/05/28 05:49:45;;;;;;;9.27;5.53;;;;;;;;;;4418273;32;20293;-54
2021/05/28 05:52:11;;;;;;;16.40;6.45;;;;;;;;;;4418315;32;20612;-54
2021/05/28 05:54:36;;;;;;;10.65;5.85;;;;;;;;;;4417820;32;20205;-53
2021/05/28 05:57:02;;;;;;;10.02;5.95;;;;;;;;;;4417637;32;20606;-54
2021/05/28 05:59:30;;;;;;;10.43;5.20;;;;;;;;;;4417775;32;20305;-55
2021/05/28 06:01:56;;;;;;;14.48;5.93;;;;;;;;;;4417716;32;20258;-54
2021/05/28 06:04:21;;;;;;;14.35;5.87;;;;;;;;;;4417559;32;20233;-54
2021/05/28 06:06:47;;;;;;;8.95;4.75;;;;;;;;;;4416722;32;20336;-53
2021/05/28 06:09:12;;;;;;;21.70;6.25;;;;;;;;;;4402592;32;20304;-54
2021/05/28 06:11:39;;;;;;;16.80;6.62;;;;;;;;;;4402563;32;20261;-54
2021/05/28 06:14:06;;;;;;;15.38;7.05;;;;;;;;;;4402062;32;20197;-54
2021/05/28 06:16:32;;;;;;;7.60;6.72;;;;;;;;;;4402410;32;20265;-54
2021/05/28 06:18:58;;;;;;;15.40;6.60;;;;;;;;;;4407888;32;20208;-54
2021/05/28 06:21:23;;;;;;;16.02;6.40;;;;;;;;;;4417703;32;20252;-54
2021/05/28 06:23:49;;;;;;;8.82;5.60;;;;;;;;;;4403959;32;20255;-53
2021/05/28 06:26:14;;;;;;;8.65;5.60;;;;;;;;;;4418015;32;20225;-54
2021/05/28 06:28:39;;;;;;;14.45;5.35;;;;;;;;;;4417705;32;20633;-54
2021/05/28 06:31:05;;;;;;;6.40;5.30;;;;;;;;;;4417308;32;20387;-54
2021/05/28 06:33:30;;;;;;;11.15;5.20;;;;;;;;;;4418214;32;20247;-53
2021/05/28 06:35:56;;;;;;;11.40;5.07;;;;;;;;;;4417937;32;20546;-54
2021/05/28 06:38:21;;;;;;;13.52;4.87;;;;;;;;;;4418094;32;20193;-54
2021/05/28 06:40:47;;;;;;;8.45;5.47;;;;;;;;;;4417755;32;20272;-54
2021/05/28 06:43:12;;;;;;;20.48;8.35;;;;;;;;;;4417307;32;20256;-54
2021/05/28 06:45:38;;;;;;;6.47;4.18;;;;;;;;;;4417560;32;20260;-54
2021/05/28 06:48:04;;;;;;;7.65;3.65;;;;;;;;;;4417750;32;20377;-55
2021/05/28 06:50:31;;;;;;;7.40;4.18;;;;;;;;;;4417166;32;20292;-55
2021/05/28 06:52:58;;;;;;;6.15;4.97;;;;;;;;;;4417560;32;20251;-53
2021/05/28 06:55:24;;;;;;;10.73;4.03;;;;;;;;;;4417408;32;20394;-55
2021/05/28 06:57:49;;;;;;;7.72;4.45;;;;;;;;;;4417240;32;20634;-54
2021/05/28 07:00:15;;;;;;;12.65;4.32;;;;;;;;;;4416711;32;20236;-53
2021/05/28 07:02:40;;;;;;;13.48;4.80;;;;;;;;;;4417484;32;20618;-53
2021/05/28 07:05:07;;;;;;;8.80;4.43;;;;;;;;;;4417067;32;20279;-54
2021/05/28 07:07:33;;;;;;;6.97;4.37;;;;;;;;;;4413184;32;20264;-54
2021/05/28 07:09:59;;;;;;;8.85;4.82;;;;;;;;;;4416971;32;20230;-54
2021/05/28 07:12:25;;;;;;;10.30;4.90;;;;;;;;;;4416317;32;20232;-54
2021/05/28 07:14:50;;;;;;;7.97;4.80;;;;;;;;;;4416541;32;20197;-54
2021/05/28 07:17:16;;;;;;;7.32;4.40;;;;;;;;;;4416606;32;20286;-54
2021/05/28 07:19:42;;;;;;;10.55;5.03;;;;;;;;;;4416418;32;20677;-54
2021/05/28 07:22:07;;;;;;;12.95;5.00;;;;;;;;;;4416955;32;20306;-54
2021/05/28 07:24:33;;;;;;;6.28;4.28;;;;;;;;;;4417162;32;20307;-54
2021/05/28 07:26:58;;;;;;;4.90;3.83;;;;;;;;;;4416954;32;20221;-54
2021/05/28 07:29:24;;;;;;;16.83;5.12;;;;;;;;;;4416091;32;20700;-55
2021/05/28 07:31:51;;;;;;;6.07;4.50;;;;;;;;;;4415863;32;20221;-54
2021/05/28 07:34:16;;;;;;;5.00;3.67;;;;;;;;;;4402109;32;20326;-54
2021/05/28 07:36:42;;;;;;;5.55;4.20;;;;;;;;;;4417175;32;20348;-54
2021/05/28 07:39:08;;;;;;;13.55;5.45;;;;;;;;;;4402956;32;20264;-54
2021/05/28 07:41:36;;;;;;;7.40;4.18;;;;;;;;;;4416626;32;20283;-54
2021/05/28 07:44:02;;;;;;;11.12;4.93;;;;;;;;;;4416207;32;20210;-54
2021/05/28 07:46:27;;;;;;;11.82;5.47;;;;;;;;;;4416498;32;20580;-54
2021/05/28 07:48:53;;;;;;;8.02;5.03;;;;;;;;;;4416741;32;20292;-54
2021/05/28 07:51:18;;;;;;;11.23;5.37;;;;;;;;;;4416381;32;20220;-54
2021/05/28 07:53:44;;;;;;;10.10;5.95;;;;;;;;;;4416092;32;20264;-56
2021/05/28 07:56:09;;;;;;;8.15;6.18;;;;;;;;;;4416381;32;20217;-55
2021/05/28 07:58:35;;;;;;;12.07;7.35;;;;;;;;;;4416288;32;20189;-54
2021/05/28 08:01:01;;;;;;;9.77;7.50;;;;;;;;;;4416263;32;20337;-53
2021/05/28 08:03:28;;;;;;;13.93;7.90;;;;;;;;;;4413975;32;20598;-54
2021/05/28 08:05:53;;;;;;;12.85;8.93;;;;;;;;;;4399600;32;20656;-54
2021/05/28 08:08:21;;;;;;;18.77;7.85;;;;;;;;;;4415861;32;20250;-54
2021/05/28 08:10:48;;;;;;;8.50;4.47;;;;;;;;;;4416311;32;20256;-53
2021/05/28 08:13:14;;;;;;;5.40;3.17;;;;;;;;;;4415902;32;20274;-53
2021/05/28 08:15:40;;;;;;;5.75;3.53;;;;;;;;;;4415688;32;20292;-55
2021/05/28 08:18:06;;;;;;;15.50;5.95;;;;;;;;;;4416239;32;20267;-54
2021/05/28 08:20:31;;;;;;;7.65;3.10;;;;;;;;;;4415739;32;20764;-54
2021/05/28 08:22:58;;;;;;;2.20;1.50;;;;;;;;;;4412576;32;20271;-53
2021/05/28 08:25:25;;;;;;;5.37;1.30;;;;;;;;;;4413962;32;20307;-53
2021/05/28 08:27:50;;;;;;;5.07;1.30;;;;;;;;;;4416535;32;20320;-53
2021/05/28 08:30:17;;;;;;;3.22;1.00;;;;;;;;;;4416537;32;20354;-53
2021/05/28 08:32:43;;;;;;;2.58;1.37;;;;;;;;;;4417192;32;20761;-53
2021/05/28 08:35:10;;;;;;;4.40;1.60;;;;;;;;;;4416857;32;20217;-54
2021/05/28 08:37:35;;;;;;;4.93;1.17;;;;;;;;;;4416928;32;20507;-54
2021/05/28 08:40:01;;;;;;;4.15;2.60;;;;;;;;;;4416662;32;20244;-54
2021/05/28 08:42:29;;;;;;;7.18;3.33;;;;;;;;;;4416314;32;20293;-54
2021/05/28 08:44:55;;;;;;;6.80;2.62;;;;;;;;;;4416419;32;20273;-54
2021/05/28 08:47:21;;;;;;;6.37;2.87;;;;;;;;;;4417334;32;20331;-54
2021/05/28 08:49:51;;;;;;;11.80;2.92;;;;;;;;;;4416393;32;20270;-54
2021/05/28 08:52:19;;;;;;;6.68;2.00;;;;;;;;;;4417049;32;20221;-54
2021/05/28 08:54:44;;;;;;;4.43;1.37;;;;;;;;;;4416670;32;20272;-54
2021/05/28 08:57:11;;;;;;;2.75;1.20;;;;;;;;;;4417106;32;20224;-55
2021/05/28 08:59:36;;;;;;;1.25;0.98;;;;;;;;;;4417193;32;20209;-54
2021/05/28 09:02:02;;;;;;;2.40;0.80;;;;;;;;;;4404586;32;20897;-54
2021/05/28 09:04:28;;;;;;;1.50;0.85;;;;;;;;;;4418911;32;20285;-54
2021/05/28 09:06:53;;;;;;;0.85;0.80;;;;;;;;;;4405383;32;20303;-54
2021/05/28 09:09:22;;;;;;;2.97;0.85;;;;;;;;;;4419469;32;20545;-54
2021/05/28 09:12:04;;;;;;;2.75;1.20;;;;;;;;;;4419534;32;20296;-55
2021/05/28 09:14:40;;;;;;;8.10;1.70;;;;;;;;;;4419769;32;20213;-53
2021/05/28 09:17:07;;;;;;;2.92;1.48;;;;;;;;;;4419759;32;20426;-53
2021/05/28 09:19:36;;;;;;;3.17;1.67;;;;;;;;;;4405769;32;20812;-53
2021/05/28 09:22:09;;;;;;;5.32;3.10;;;;;;;;;;4419773;32;20216;-53
2021/05/28 09:24:41;;;;;;;4.37;2.00;;;;;;;;;;4419705;32;20201;-54
2021/05/28 09:27:31;;;;;;;3.78;1.33;;;;;;;;;;4419751;32;20718;-54
2021/05/28 09:30:20;;;;;;;2.85;1.30;;;;;;;;;;4419462;32;20557;-53
2021/05/28 09:32:49;;;;;;;1.70;1.35;;;;;;;;;;4391084;32;20271;-55
2021/05/28 09:35:16;;;;;;;4.62;1.12;;;;;;;;;;4404696;32;20656;-54
2021/05/28 09:37:52;;;;;;;4.47;1.80;;;;;;;;;;4404651;32;20239;-54
2021/05/28 09:40:23;;;;;;;4.07;1.90;;;;;;;;;;4404891;32;20204;-54
2021/05/28 09:42:55;;;;;;;3.00;1.50;;;;;;;;;;4404169;32;20277;-54
2021/05/28 09:45:32;;;;;;;4.05;1.77;;;;;;;;;;4404132;32;20197;-54
2021/05/28 09:48:00;;;;;;;2.53;1.60;;;;;;;;;;4403917;32;20220;-54
2021/05/28 09:50:32;;;;;;;4.90;2.35;;;;;;;;;;4403785;32;20427;-55
2021/05/28 09:53:04;;;;;;;2.60;1.50;;;;;;;;;;4404240;32;20253;-54
2021/05/28 09:55:31;;;;;;;1.87;1.23;;;;;;;;;;4404484;32;20190;-54
2021/05/28 09:57:57;;;;;;;5.22;1.87;;;;;;;;;;4397714;32;20299;-54
2021/05/28 10:00:31;;;;;;;2.17;1.20;;;;;;;;;;4418717;32;20757;-54
2021/05/28 10:03:22;;;;;;;1.23;1.12;;;;;;;;;;4418977;32;20220;-54
2021/05/28 10:05:58;;;;;;;3.45;1.25;;;;;;;;;;4418585;32;20217;-55
2021/05/28 10:08:26;;;;;;;4.07;1.50;;;;;;;;;;4418553;32;20318;-53
2021/05/28 10:10:53;;;;;;;3.72;1.80;;;;;;;;;;4418670;32;20277;-54
2021/05/28 10:13:21;;;;;;;2.90;1.42;;;;;;;;;;4418619;32;20359;-54
2021/05/28 10:15:54;;;;;;;3.30;1.77;;;;;;;;;;4418539;32;20286;-54
2021/05/28 10:18:21;;;;;;;3.62;1.73;;;;;;;;;;4417281;32;20217;-54
2021/05/28 10:20:52;;;;;;;6.47;1.98;;;;;;;;;;4389797;32;20251;-54
2021/05/28 10:23:18;;;;;;;4.75;2.12;;;;;;;;;;4403450;32;20240;-54
2021/05/28 10:25:46;;;;;;;4.62;2.72;;;;;;;;;;4403015;32;20614;-54
2021/05/28 10:28:19;;;;;;;5.68;3.72;;;;;;;;;;4402292;32;20209;-53
2021/05/28 10:30:47;;;;;;;6.03;3.25;;;;;;;;;;4408964;32;20248;-53
2021/05/28 10:33:26;;;;;;;4.22;2.47;;;;;;;;;;4417566;32;20304;-53
2021/05/28 10:35:55;;;;;;;3.45;2.05;;;;;;;;;;4417682;32;20499;-54
2021/05/28 10:38:30;;;;;;;4.43;2.17;;;;;;;;;;4417377;32;20252;-54
2021/05/28 10:41:17;;;;;;;3.37;1.73;;;;;;;;;;4417383;32;20326;-54
2021/05/28 10:43:48;;;;;;;3.25;2.08;;;;;;;;;;4379305;32;20233;-54
2021/05/28 10:46:14;;;;;;;4.18;2.20;;;;;;;;;;4417717;32;20221;-54
2021/05/28 10:49:08;;;;;;;2.70;2.00;;;;;;;;;;4417273;32;20722;-53
2021/05/28 10:51:33;;;;;;;5.47;4.65;;;;;;;;;;4417380;32;20353;-52
2021/05/28 10:53:59;;;;;;;8.35;3.55;;;;;;;;;;4417194;32;20602;-53
2021/05/28 10:56:26;;;;;;;5.87;3.35;;;;;;;;;;4417793;32;20220;-53
2021/05/28 10:59:14;;;;;;;4.00;2.03;;;;;;;;;;4417736;32;20317;-53
2021/05/28 11:01:47;;;;;;;8.10;2.10;;;;;;;;;;4417860;32;20270;-53
2021/05/28 11:04:15;;;;;;;3.90;2.50;;;;;;;;;;4417549;32;20217;-54
2021/05/28 11:07:02;;;;;;;2.92;2.28;;;;;;;;;;4403763;32;20562;-53
2021/05/28 11:09:43;;;;;;;5.18;2.78;;;;;;;;;;4405281;32;20256;-53
2021/05/28 11:12:13;;;;;;;4.18;1.98;;;;;;;;;;4417381;32;20411;-55
2021/05/28 11:14:59;;;;;;;4.80;1.95;;;;;;;;;;4417015;32;20236;-53
2021/05/28 11:17:25;;;;;;;2.22;1.33;;;;;;;;;;4417934;32;20604;-53
2021/05/28 11:19:55;;;;;;;6.30;1.98;;;;;;;;;;4406679;32;20231;-53
2021/05/28 11:22:25;;;;;;;2.20;1.30;;;;;;;;;;4402731;32;20244;-53
2021/05/28 11:24:52;;;;;;;2.55;1.75;;;;;;;;;;4408207;32;20385;-53
2021/05/28 11:27:20;;;;;;;6.85;1.52;;;;;;;;;;4417530;32;20220;-52
2021/05/28 11:30:06;;;;;;;4.53;2.40;;;;;;;;;;4416928;32;20269;-53
2021/05/28 11:32:42;;;;;;;2.35;1.80;;;;;;;;;;4393264;32;20680;-53
2021/05/28 11:35:21;;;;;;;3.55;1.52;;;;;;;;;;4417005;32;20200;-54
2021/05/28 11:38:07;;;;;;;5.65;2.80;;;;;;;;;;4417408;32;20216;-53
2021/05/28 11:40:35;;;;;;;3.50;1.95;;;;;;;;;;4416874;32;20302;-53
2021/05/28 11:43:18;;;;;;;8.02;3.00;;;;;;;;;;4402977;32;20221;-54
2021/05/28 11:45:52;;;;;;;10.25;2.95;;;;;;;;;;4416921;32;20272;-53
2021/05/28 11:48:20;;;;;;;4.12;2.42;;;;;;;;;;4417090;32;20205;-54
2021/05/28 11:50:55;;;;;;;8.40;2.22;;;;;;;;;;4416965;32;20543;-54
2021/05/28 11:53:21;;;;;;;4.05;2.12;;;;;;;;;;4416886;32;20205;-54
2021/05/28 11:55:54;;;;;;;4.35;2.33;;;;;;;;;;4416680;32;20273;-56
2021/05/28 11:58:21;;;;;;;4.75;2.47;;;;;;;;;;4416801;32;20190;-54
2021/05/28 12:00:49;;;;;;;6.75;2.50;;;;;;;;;;4418198;32;20227;-54
2021/05/28 12:03:15;;;;;;;7.45;3.00;;;;;;;;;;4419962;32;20264;-53
2021/05/28 12:05:42;;;;;;;4.10;2.12;;;;;;;;;;4419786;32;20259;-53
2021/05/28 12:08:11;;;;;;;3.75;2.60;;;;;;;;;;4419870;32;20286;-54
2021/05/28 12:10:37;;;;;;;7.07;2.35;;;;;;;;;;4405667;32;20342;-53
2021/05/28 12:13:07;;;;;;;3.33;2.97;;;;;;;;;;4419868;32;20300;-53
2021/05/28 12:15:39;;;;;;;3.80;2.97;;;;;;;;;;4419497;32;20205;-53
2021/05/28 12:18:38;;;;;;;5.65;2.80;;;;;;;;;;4420156;32;20359;-53
2021/05/28 12:21:09;;;;;;;4.25;2.83;;;;;;;;;;4392875;32;20335;-53
2021/05/28 12:23:57;;;;;;;4.40;3.45;;;;;;;;;;4404502;32;20240;-53
2021/05/28 12:26:26;;;;;;;8.73;2.30;;;;;;;;;;4390649;32;20288;-53
2021/05/28 12:28:56;;;;;;;11.35;5.35;;;;;;;;;;4390918;32;20284;-53
2021/05/28 12:31:26;;;;;;;8.52;3.20;;;;;;;;;;4411395;32;20419;-52
2021/05/28 12:33:53;;;;;;;4.55;2.58;;;;;;;;;;4419795;32;20266;-52
2021/05/28 12:36:25;;;;;;;5.10;3.83;;;;;;;;;;4419854;32;20802;-51
2021/05/28 12:38:52;;;;;;;8.15;3.33;;;;;;;;;;4420001;32;20262;-53
2021/05/28 12:41:30;;;;;;;7.35;2.95;;;;;;;;;;4419474;32;20306;-53
2021/05/28 12:43:57;;;;;;;9.10;4.80;;;;;;;;;;4420277;32;20197;-54
2021/05/28 12:46:35;;;;;;;3.33;2.30;;;;;;;;;;4419862;32;20239;-52
2021/05/28 12:49:09;;;;;;;2.25;1.70;;;;;;;;;;4420171;32;20528;-52
2021/05/28 12:51:46;;;;;;;5.18;2.20;;;;;;;;;;4419723;32;20217;-53
2021/05/28 12:54:20;;;;;;;3.28;1.92;;;;;;;;;;4419746;32;20613;-52
2021/05/28 12:56:47;;;;;;;7.65;2.17;;;;;;;;;;4419704;32;20320;-53
2021/05/28 12:59:19;;;;;;;2.50;2.30;;;;;;;;;;4419937;32;20208;-54
2021/05/28 13:01:45;;;;;;;3.08;2.30;;;;;;;;;;4419511;32;20331;-54
2021/05/28 13:04:13;;;;;;;5.97;2.20;;;;;;;;;;4405822;32;20237;-54
2021/05/28 13:06:48;;;;;;;2.65;2.15;;;;;;;;;;4420127;32;20225;-54
2021/05/28 13:09:27;;;;;;;4.70;2.20;;;;;;;;;;4419681;32;20771;-53
2021/05/28 13:11:53;;;;;;;3.05;2.00;;;;;;;;;;4418882;32;20296;-53
2021/05/28 13:14:35;;;;;;;3.22;2.65;;;;;;;;;;4419888;32;20272;-52
2021/05/28 13:17:30;;;;;;;3.95;2.40;;;;;;;;;;4419757;32;20233;-53
2021/05/28 13:20:04;;;;;;;10.45;2.33;;;;;;;;;;4408005;32;20538;-53
2021/05/28 13:22:49;;;;;;;3.37;2.70;;;;;;;;;;4404409;32;20241;-53
2021/05/28 13:25:14;;;;;;;4.62;3.10;;;;;;;;;;4403886;32;20238;-53
2021/05/28 13:27:41;;;;;;;3.30;2.75;;;;;;;;;;4404574;32;20241;-54
2021/05/28 13:30:08;;;;;;;3.58;2.67;;;;;;;;;;4406777;32;20229;-54
2021/05/28 13:32:36;;;;;;;3.22;2.92;;;;;;;;;;4419262;32;20465;-53
2021/05/28 13:35:04;;;;;;;4.43;3.00;;;;;;;;;;4418957;32;20252;-53
2021/05/28 13:37:30;;;;;;;6.95;2.87;;;;;;;;;;4418849;32;20229;-53
2021/05/28 13:39:55;;;;;;;3.97;3.03;;;;;;;;;;4418809;32;20545;-52
2021/05/28 13:42:22;;;;;;;7.50;3.53;;;;;;;;;;4419326;32;20221;-53
2021/05/28 13:44:48;;;;;;;6.32;4.40;;;;;;;;;;4418714;32;20201;-52
2021/05/28 13:47:14;;;;;;;3.87;3.45;;;;;;;;;;4418405;32;20650;-53
2021/05/28 13:49:39;;;;;;;4.55;4.05;;;;;;;;;;4418746;32;20300;-53
2021/05/28 13:52:05;;;;;;;7.03;3.90;;;;;;;;;;4418653;32;20264;-53
2021/05/28 13:54:31;;;;;;;5.65;3.78;;;;;;;;;;4418487;32;20383;-53
2021/05/28 13:56:56;;;;;;;8.52;4.28;;;;;;;;;;4418301;32;20225;-54
2021/05/28 13:59:22;;;;;;;6.40;4.30;;;;;;;;;;4418116;32;20235;-53
2021/05/28 14:01:48;;;;;;;9.55;4.30;;;;;;;;;;4418167;32;20766;-53
2021/05/28 14:04:14;;;;;;;4.40;3.80;;;;;;;;;;4418092;32;20609;-54
2021/05/28 14:06:39;;;;;;;5.35;4.30;;;;;;;;;;4418782;32;20244;-53
2021/05/28 14:09:05;;;;;;;4.72;4.32;;;;;;;;;;4418547;32;20558;-53
2021/05/28 14:11:31;;;;;;;8.02;3.83;;;;;;;;;;4418148;32;20225;-53
2021/05/28 14:13:56;;;;;;;11.27;4.65;;;;;;;;;;4418450;32;20254;-53
2021/05/28 14:16:22;;;;;;;10.85;4.68;;;;;;;;;;4418384;32;20268;-53
2021/05/28 14:18:48;;;;;;;5.65;4.57;;;;;;;;;;4413738;32;20549;-54
2021/05/28 14:21:13;;;;;;;7.25;4.78;;;;;;;;;;4403062;32;20297;-53
2021/05/28 14:23:39;;;;;;;11.57;4.93;;;;;;;;;;4402689;32;20202;-54
2021/05/28 14:26:07;;;;;;;7.55;5.22;;;;;;;;;;4416038;32;20225;-54
2021/05/28 14:28:33;;;;;;;5.53;4.50;;;;;;;;;;4402595;32;20205;-54
2021/05/28 14:30:59;;;;;;;5.00;4.30;;;;;;;;;;4410572;32;20321;-54
2021/05/28 14:33:35;;;;;;;5.40;4.72;;;;;;;;;;4417935;32;20711;-54
2021/05/28 14:36:01;;;;;;;5.07;4.53;;;;;;;;;;4417597;32;20189;-54
2021/05/28 14:38:26;;;;;;;5.07;4.50;;;;;;;;;;4418272;32;20235;-54
2021/05/28 14:40:52;;;;;;;6.53;4.97;;;;;;;;;;4418011;32;20344;-53
2021/05/28 14:43:17;;;;;;;8.32;4.72;;;;;;;;;;4417992;32;20527;-53
2021/05/28 14:45:43;;;;;;;6.05;5.43;;;;;;;;;;4418364;32;20273;-54
2021/05/28 14:48:08;;;;;;;5.93;4.15;;;;;;;;;;4417837;32;20217;-54